Hemavan Gierevarto, Sweden

10:18 AM CET on February 01, 2015 (GMT +0100)
Hemavan | Change Station
CLOSE
Current Station
Personal Weather Station
Location: Hemavan, HEMAVAN
Elevation: 1617 ft
Nearby Weather Stations

Elev 1617 ft 65.81 °N, 15.11 °E | Updated 20 seconds ago

Light Snow
Light Snow
17.3 °F
Feels Like 10 °F
N
5.0
Wind Variable Wind from NE
Gusts 18.0 mph

Today
High -- | Low -- °F
--% Chance of Precip.
Yesterday
High -- | Low -- °F
Precip. -- in
8:55 AM 3:32 PM
Waxing Gibbous, 94% visible
Pressure 29.18 in
Visibility -9999.0 miles
Clouds Few 1700 ft
Scattered Clouds 2900 ft
Windchill 10 °F
Dew Point 16 °F
Humidity 93%
Rainfall 0.00 in
Snow Depth Not available.
UV 0.0 out of 12
Pollen Not available.
Air Quality Not available.
Flu Activity Not available.
METAR ESUT 010850Z AUTO VRB06G29KT 070V290 3800 -SN FEW017/// SCT029/// M06/M11 Q0988

More Conditions Fewer Conditions

Pressure 29.18 in
Visibility -9999.0 miles
Clouds Few 1700 ft
Scattered Clouds 2900 ft
Windchill 10 °F
Dew Point 16 °F
Humidity 93%
Rainfall 0.00 in
Snow Depth Not available.
UV 0.0 out of 12
Pollen Not available.
Air Quality Not available.
Flu Activity Not available.
METAR ESUT 010850Z AUTO VRB06G29KT 070V290 3800 -SN FEW017/// SCT029/// M06/M11 Q0988

More Conditions Fewer Conditions

10-Day Weather Forecast

Almanac

Astronomy

Feb. 01, 2015 Rise Set
Actual Time
Civil Twilight
Nautical Twilight
Astronomical Twilight
Moon
Length of Visible Light
Length of Day
Tomorrow will be .
, % of the Moon is Illuminated

Today's Extremes

Country Highs Country Lows

Community

WunderPhotos

Upload Photos

1,792,338 photos uploaded!

WunderBlogs® & News

Nearby

Air Quality

  Air Quality AQ Index Pollutant
Not available.

Snow Depth

Station Depth Elevation

Earthquake Activity

City Distance Mag. Time & Date
Minimum magnitude displayed is 2.5.

Coastal Water Temperatures

Place Temperature

Nearby Weather Stations